Rechercher aéroport 
image banner adimage banner adimage banner ad
image banner ad

86CN - Mercy Medical Center Merced

Situé à Merced, United States

ICAO - 86CN, IATA -

Données fournies par Airmate  

Information générale

Coordonnées: N37°20'27" W120°28'0"
Élévation : 194 feet MSL.
 
Voir autres Aéroports à California

Données opérationnelles

Special qualification required
Heure actuelle UTC:
Heure actuelle locale:
Météo à : KMCE - Merced Rgnl/Macready Field ( 7 km )
METAR: KMCE 212253Z AUTO VRB03KT 10SM CLR 36/07 A3001 RMK AO2 SLP162 T03560067 $
TAF: KMCE 211720Z 2118/2218 VRB05KT P6SM SKC TEMPO 2118/2122 5SM HZ FU SCT090
Voir NOTAMs / SUP AIP / TFR affectant cet aéroport [VIEW]
Fréquences de communication: [VIEW]

Pistes:

Coordonnées de l'aéroport

Adresse: Merced United States

Vue satellite de 86CN